createdAt,value
2023-09-11T00:00:21.517Z,55.21
2023-09-11T00:02:50.673Z,54.97
2023-09-11T00:05:19.826Z,54.99
2023-09-11T00:07:50.254Z,54.90
2023-09-11T00:10:19.323Z,55.14
2023-09-11T00:12:48.327Z,55.09
2023-09-11T00:15:17.536Z,55.10
2023-09-11T00:17:46.680Z,55.42
2023-09-11T00:20:15.921Z,55.31
2023-09-11T00:22:45.004Z,55.33
2023-09-11T00:25:15.426Z,55.25
2023-09-11T00:27:44.683Z,55.30
2023-09-11T00:30:14.029Z,55.01
2023-09-11T00:32:43.268Z,55.24
2023-09-11T00:35:12.410Z,55.64
2023-09-11T00:37:41.669Z,55.55
2023-09-11T00:40:11.255Z,55.60
2023-09-11T00:42:41.730Z,55.37
2023-09-11T00:45:11.653Z,55.47
2023-09-11T00:47:42.525Z,55.45
2023-09-11T00:50:13.877Z,55.57
2023-09-11T00:52:44.361Z,55.73
2023-09-11T00:55:14.704Z,55.64
2023-09-11T00:57:45.582Z,55.56
2023-09-11T01:00:16.191Z,55.68
2023-09-11T01:02:45.428Z,55.71
2023-09-11T01:05:14.792Z,55.45
2023-09-11T01:07:44.082Z,55.70
2023-09-11T01:10:13.331Z,55.84
2023-09-11T01:12:42.494Z,55.73
2023-09-11T01:15:13.502Z,55.69
2023-09-11T01:17:51.909Z,56.05
2023-09-11T01:20:45.175Z,55.95
2023-09-11T01:23:44.091Z,55.88
2023-09-11T01:26:32.150Z,55.84
2023-09-11T01:29:18.834Z,55.74
2023-09-11T01:31:49.578Z,55.64
2023-09-11T01:34:18.647Z,55.76
2023-09-11T01:36:47.798Z,55.75
2023-09-11T01:39:18.056Z,55.63
2023-09-11T01:41:49.650Z,55.82
2023-09-11T01:44:24.155Z,55.84
2023-09-11T01:46:55.051Z,55.88
2023-09-11T01:49:26.511Z,55.86
2023-09-11T01:51:56.491Z,55.73
2023-09-11T01:54:27.256Z,55.86
2023-09-11T01:56:56.510Z,55.82
2023-09-11T01:59:27.524Z,55.67
2023-09-11T02:01:56.580Z,55.90
2023-09-11T02:04:26.761Z,56.03
2023-09-11T02:06:56.001Z,56.05
2023-09-11T02:09:25.143Z,55.90
2023-09-11T02:11:54.478Z,55.85
2023-09-11T02:14:23.969Z,55.97
2023-09-11T02:16:54.484Z,55.93
2023-09-11T02:19:23.644Z,55.95
2023-09-11T02:21:52.711Z,55.99
2023-09-11T02:24:21.816Z,55.97
2023-09-11T02:26:51.380Z,56.15
2023-09-11T02:29:20.526Z,56.11
2023-09-11T02:31:49.653Z,56.12
2023-09-11T02:34:20.124Z,56.04
2023-09-11T02:36:49.220Z,55.96
2023-09-11T02:39:18.259Z,56.39
2023-09-11T02:41:47.397Z,56.05
2023-09-11T02:44:16.682Z,56.27
2023-09-11T02:46:45.852Z,56.07
2023-09-11T02:49:14.908Z,56.00
2023-09-11T02:51:45.441Z,55.97
2023-09-11T02:54:15.102Z,56.15
2023-09-11T02:56:44.232Z,55.85
2023-09-11T02:59:13.639Z,56.02
2023-09-11T03:01:42.851Z,56.05
2023-09-11T03:04:12.039Z,56.34
2023-09-11T03:06:41.118Z,55.97
2023-09-11T03:09:12.900Z,56.11
2023-09-11T03:11:42.666Z,55.96
2023-09-11T03:14:13.105Z,56.00
2023-09-11T03:16:44.822Z,55.99
2023-09-11T03:19:14.732Z,55.92
2023-09-11T03:21:43.819Z,55.96
2023-09-11T03:24:14.389Z,55.89
2023-09-11T03:26:43.540Z,55.97
2023-09-11T03:29:12.897Z,56.08
2023-09-11T03:31:42.027Z,56.07
2023-09-11T03:34:11.648Z,55.84
2023-09-11T03:36:41.188Z,56.05
2023-09-11T03:39:10.480Z,55.94
2023-09-11T03:41:41.194Z,55.93
2023-09-11T03:44:10.426Z,56.11
2023-09-11T03:46:39.538Z,55.85
2023-09-11T03:49:08.687Z,55.99
2023-09-11T03:51:37.797Z,55.96
2023-09-11T03:54:09.845Z,56.28
2023-09-11T03:56:40.809Z,55.53
2023-09-11T03:59:11.208Z,54.74
2023-09-11T04:01:40.348Z,54.13
2023-09-11T04:04:11.710Z,53.99
2023-09-11T04:06:41.210Z,53.81
2023-09-11T04:09:10.442Z,53.77
2023-09-11T04:11:41.061Z,53.64
2023-09-11T04:14:10.151Z,53.56
2023-09-11T04:16:39.410Z,53.28
2023-09-11T04:19:09.240Z,52.85
2023-09-11T04:21:38.629Z,53.42
2023-09-11T04:24:13.624Z,53.26
2023-09-11T04:26:46.474Z,53.56
2023-09-11T04:29:16.385Z,53.51
2023-09-11T04:31:46.288Z,53.49
2023-09-11T04:34:15.429Z,53.56
2023-09-11T04:36:44.653Z,53.71
2023-09-11T04:39:14.713Z,53.50
2023-09-11T04:41:46.027Z,53.64
2023-09-11T04:44:15.260Z,53.51
2023-09-11T04:46:46.383Z,53.13
2023-09-11T04:49:15.733Z,53.17
2023-09-11T04:51:44.817Z,53.42
2023-09-11T04:54:13.926Z,53.12
2023-09-11T04:56:43.626Z,53.35
2023-09-11T04:59:14.260Z,53.10
2023-09-11T05:01:43.369Z,53.29
2023-09-11T05:04:12.795Z,53.40
2023-09-11T05:06:41.944Z,53.26
2023-09-11T05:09:12.791Z,53.12
2023-09-11T05:11:45.948Z,53.12
2023-09-11T05:14:17.497Z,53.28
2023-09-11T05:16:46.773Z,53.45
2023-09-11T05:19:15.915Z,53.54
2023-09-11T05:21:45.186Z,53.51
2023-09-11T05:24:14.293Z,53.55
2023-09-11T05:26:43.368Z,53.26
2023-09-11T05:29:12.477Z,53.04
2023-09-11T05:31:43.124Z,53.47
2023-09-11T05:34:12.200Z,53.47
2023-09-11T05:36:41.305Z,53.35
2023-09-11T05:39:10.350Z,53.16
2023-09-11T05:41:39.420Z,53.25
2023-09-11T05:44:08.671Z,53.30
2023-09-11T05:46:37.961Z,53.44
2023-09-11T05:49:08.360Z,53.47
2023-09-11T05:51:37.478Z,53.09
2023-09-11T05:54:06.864Z,53.27
2023-09-11T05:56:36.133Z,53.30
2023-09-11T05:59:05.338Z,53.53
2023-09-11T06:01:34.478Z,53.23
2023-09-11T06:04:03.714Z,53.10
2023-09-11T06:06:35.725Z,53.40
2023-09-11T06:09:09.253Z,53.26
2023-09-11T06:11:38.942Z,53.36
2023-09-11T06:14:08.894Z,53.17
2023-09-11T06:16:37.932Z,53.09
2023-09-11T06:19:07.316Z,53.01
2023-09-11T06:21:38.152Z,53.15
2023-09-11T06:24:08.255Z,53.28
2023-09-11T06:26:37.309Z,53.07
2023-09-11T06:29:06.365Z,52.99
2023-09-11T06:31:36.516Z,52.92
2023-09-11T06:34:05.932Z,53.31
2023-09-11T06:36:35.083Z,53.33
2023-09-11T06:39:07.115Z,53.03
2023-09-11T06:41:36.418Z,53.18
2023-09-11T06:44:05.909Z,53.00
2023-09-11T06:46:35.001Z,53.15
2023-09-11T06:49:04.631Z,53.61
2023-09-11T06:51:34.316Z,52.97
2023-09-11T06:54:04.961Z,52.96
2023-09-11T06:56:35.789Z,53.08
2023-09-11T06:59:04.986Z,52.93
2023-09-11T07:01:40.050Z,53.15
2023-09-11T07:04:12.299Z,52.83
2023-09-11T07:06:43.468Z,53.07
2023-09-11T07:09:13.127Z,53.10
2023-09-11T07:11:43.690Z,53.07
2023-09-11T07:14:14.082Z,52.59
2023-09-11T07:16:43.232Z,52.91
2023-09-11T07:19:12.274Z,53.05
2023-09-11T07:21:41.880Z,52.93
2023-09-11T07:24:10.951Z,53.11
2023-09-11T07:26:40.135Z,53.39
2023-09-11T07:29:10.646Z,53.24
2023-09-11T07:31:40.576Z,53.27
2023-09-11T07:34:11.053Z,53.34
2023-09-11T07:36:40.427Z,53.18
2023-09-11T07:39:09.553Z,53.36
2023-09-11T07:41:38.839Z,53.32
2023-09-11T07:44:07.998Z,53.31
2023-09-11T07:46:38.531Z,53.16
2023-09-11T07:49:07.827Z,53.31
2023-09-11T07:51:37.015Z,53.39
2023-09-11T07:54:06.406Z,53.28
2023-09-11T07:56:35.695Z,53.41
2023-09-11T07:59:04.874Z,53.34
2023-09-11T08:01:34.059Z,53.39
2023-09-11T08:04:04.706Z,53.53
2023-09-11T08:06:34.034Z,53.10
2023-09-11T08:09:05.060Z,53.42
2023-09-11T08:11:36.168Z,53.43
2023-09-11T08:14:05.449Z,53.36
2023-09-11T08:16:34.583Z,53.66
2023-09-11T08:19:06.006Z,53.15
2023-09-11T08:21:35.085Z,53.34
2023-09-11T08:24:04.370Z,53.30
2023-09-11T08:26:34.838Z,53.20
2023-09-11T08:29:04.819Z,53.25
2023-09-11T08:31:34.251Z,53.28
2023-09-11T08:34:05.038Z,53.22
2023-09-11T08:36:34.282Z,53.77
2023-09-11T08:39:03.838Z,53.62
2023-09-11T08:41:33.281Z,53.43
2023-09-11T08:44:02.404Z,53.54
2023-09-11T08:46:34.690Z,53.39
2023-09-11T08:49:12.629Z,53.23
2023-09-11T08:51:49.953Z,53.28
2023-09-11T08:54:20.895Z,53.29
2023-09-11T08:56:50.387Z,53.09
2023-09-11T08:59:24.554Z,52.95
2023-09-11T09:01:54.456Z,53.10
2023-09-11T09:04:28.205Z,52.97
2023-09-11T09:06:58.974Z,52.94
2023-09-11T09:09:29.192Z,52.82
2023-09-11T09:11:58.288Z,52.70
2023-09-11T09:14:31.111Z,52.81
2023-09-11T09:17:00.888Z,52.55
2023-09-11T09:19:32.415Z,52.57
2023-09-11T09:22:13.961Z,52.64
2023-09-11T09:24:52.267Z,52.72
2023-09-11T09:27:23.077Z,52.64
2023-09-11T09:29:52.220Z,52.53
2023-09-11T09:32:21.364Z,52.72
2023-09-11T09:34:55.278Z,52.62
2023-09-11T09:37:24.841Z,52.56
2023-09-11T09:39:54.483Z,52.25
2023-09-11T09:42:24.484Z,52.56
2023-09-11T09:44:54.723Z,52.50
2023-09-11T09:47:24.898Z,52.44
2023-09-11T09:49:57.489Z,52.38
2023-09-11T09:52:29.524Z,52.38
2023-09-11T09:55:01.020Z,52.40
2023-09-11T09:57:30.381Z,52.40
2023-09-11T10:00:01.095Z,52.23
2023-09-11T10:02:32.203Z,52.14
2023-09-11T10:05:05.817Z,52.37
2023-09-11T10:07:39.928Z,52.21
2023-09-11T10:10:24.710Z,52.22
2023-09-11T10:12:55.876Z,52.49
2023-09-11T10:15:25.916Z,52.46
2023-09-11T10:17:57.026Z,52.28
2023-09-11T10:20:28.652Z,52.13
2023-09-11T10:22:59.582Z,52.07
2023-09-11T10:25:30.994Z,51.92
2023-09-11T10:28:04.862Z,52.03
2023-09-11T10:30:47.764Z,52.23
2023-09-11T10:33:27.671Z,52.01
2023-09-11T10:36:05.977Z,51.82
2023-09-11T10:38:37.917Z,52.23
2023-09-11T10:41:10.267Z,52.17
2023-09-11T10:43:39.546Z,51.91
2023-09-11T10:46:17.312Z,52.11
2023-09-11T10:48:46.580Z,52.36
2023-09-11T10:51:17.856Z,51.93
2023-09-11T10:53:50.476Z,52.24
2023-09-11T10:56:19.616Z,52.27
2023-09-11T10:58:53.050Z,52.26
2023-09-11T11:01:23.960Z,52.26
2023-09-11T11:03:55.293Z,52.18
2023-09-11T11:06:26.947Z,52.09
2023-09-11T11:08:56.188Z,52.04
2023-09-11T11:11:28.679Z,52.31
2023-09-11T11:14:18.807Z,51.80
2023-09-11T11:17:05.838Z,52.01
2023-09-11T11:19:38.003Z,52.09
2023-09-11T11:22:10.434Z,52.09
2023-09-11T11:24:56.009Z,52.27
2023-09-11T11:27:25.686Z,52.36
2023-09-11T11:29:56.154Z,52.46
2023-09-11T11:32:25.861Z,52.40
2023-09-11T11:34:57.664Z,52.22
2023-09-11T11:37:28.546Z,52.09
2023-09-11T11:39:58.861Z,51.91
2023-09-11T11:42:29.042Z,52.13
2023-09-11T11:44:58.671Z,51.82
2023-09-11T11:47:28.868Z,51.80
2023-09-11T11:49:58.010Z,52.30
2023-09-11T11:52:28.466Z,52.30
2023-09-11T11:54:57.529Z,51.76
2023-09-11T11:57:26.807Z,52.07
2023-09-11T11:59:56.043Z,52.29
2023-09-11T12:02:26.782Z,51.67
2023-09-11T12:04:56.557Z,51.98
2023-09-11T12:07:27.154Z,52.24
2023-09-11T12:09:57.730Z,52.34
2023-09-11T12:12:27.147Z,51.89
2023-09-11T12:14:57.886Z,52.34
2023-09-11T12:17:27.143Z,52.29
2023-09-11T12:20:12.636Z,51.71
2023-09-11T12:22:44.046Z,52.05
2023-09-11T12:25:16.178Z,52.03
2023-09-11T12:27:47.109Z,51.71
2023-09-11T12:30:17.308Z,51.90
2023-09-11T12:32:47.390Z,51.84
2023-09-11T12:35:16.539Z,52.13
2023-09-11T12:37:45.739Z,51.93
2023-09-11T12:40:16.233Z,52.15
2023-09-11T12:42:45.324Z,52.19
2023-09-11T12:45:14.487Z,51.93
2023-09-11T12:47:44.189Z,51.69
2023-09-11T12:50:14.792Z,51.73
2023-09-11T12:52:43.953Z,51.57
2023-09-11T12:55:14.334Z,51.69
2023-09-11T12:57:44.861Z,51.78
2023-09-11T13:00:15.566Z,51.87
2023-09-11T13:02:44.834Z,51.98
2023-09-11T13:05:14.011Z,51.99
2023-09-11T13:07:43.089Z,51.64
2023-09-11T13:10:12.534Z,51.58
2023-09-11T13:12:41.592Z,51.69
2023-09-11T13:15:12.478Z,51.54
2023-09-11T13:17:41.766Z,51.97
2023-09-11T13:20:11.484Z,51.84
2023-09-11T13:22:42.697Z,51.65
2023-09-11T13:25:13.784Z,51.73
2023-09-11T13:27:42.961Z,51.73
2023-09-11T13:30:14.240Z,51.68
2023-09-11T13:32:46.454Z,51.70
2023-09-11T13:35:15.944Z,51.47
2023-09-11T13:37:45.109Z,51.86
2023-09-11T13:40:14.320Z,51.36
2023-09-11T13:42:44.577Z,51.35
2023-09-11T13:45:16.681Z,51.70
2023-09-11T13:47:46.167Z,52.09
2023-09-11T13:50:15.251Z,51.58
2023-09-11T13:52:44.415Z,51.63
2023-09-11T13:55:13.498Z,51.75
2023-09-11T13:57:42.590Z,51.13
2023-09-11T14:00:12.192Z,51.68
2023-09-11T14:02:43.058Z,51.61
2023-09-11T14:05:12.583Z,52.02
2023-09-11T14:07:41.871Z,51.94
2023-09-11T14:10:11.572Z,51.50
2023-09-11T14:12:40.681Z,51.90
2023-09-11T14:15:13.166Z,51.49
2023-09-11T14:17:43.691Z,51.88
2023-09-11T14:20:14.360Z,51.68
2023-09-11T14:22:45.848Z,51.58
2023-09-11T14:25:14.925Z,51.82
2023-09-11T14:27:43.998Z,51.39
2023-09-11T14:30:14.303Z,51.18
2023-09-11T14:32:44.829Z,51.85
2023-09-11T14:35:14.041Z,51.30
2023-09-11T14:37:43.200Z,51.44
2023-09-11T14:40:13.844Z,51.50
2023-09-11T14:42:43.341Z,51.74
2023-09-11T14:45:13.152Z,51.70
2023-09-11T14:47:44.238Z,51.35
2023-09-11T14:50:13.392Z,51.27
2023-09-11T14:52:45.033Z,51.38
2023-09-11T14:55:14.142Z,51.61
2023-09-11T14:57:43.198Z,51.50
2023-09-11T15:00:13.536Z,51.05
2023-09-11T15:02:46.298Z,51.30
2023-09-11T15:05:15.903Z,50.99
2023-09-11T15:07:45.093Z,51.30
2023-09-11T15:10:14.292Z,51.52
2023-09-11T15:12:44.353Z,51.57
2023-09-11T15:15:13.602Z,51.41
2023-09-11T15:17:44.322Z,51.29
2023-09-11T15:20:13.823Z,51.86
2023-09-11T15:22:42.883Z,51.21
2023-09-11T15:25:11.920Z,51.41
2023-09-11T15:27:41.064Z,51.05
2023-09-11T15:30:11.101Z,51.56
2023-09-11T15:32:40.251Z,51.16
2023-09-11T15:35:12.273Z,51.17
2023-09-11T15:37:41.333Z,50.99
2023-09-11T15:40:11.016Z,51.43
2023-09-11T15:42:40.091Z,51.50
2023-09-11T15:45:10.890Z,51.63
2023-09-11T15:47:39.997Z,51.26
2023-09-11T15:50:11.329Z,51.61
2023-09-11T15:52:40.461Z,51.44
2023-09-11T15:55:10.028Z,51.79
2023-09-11T15:57:39.067Z,50.55
2023-09-11T16:00:10.137Z,50.03
2023-09-11T16:02:39.383Z,49.07
2023-09-11T16:05:08.602Z,50.31
2023-09-11T16:07:39.065Z,49.53
2023-09-11T16:10:09.353Z,49.95
2023-09-11T16:12:38.503Z,50.29
2023-09-11T16:15:12.302Z,50.31
2023-09-11T16:17:42.222Z,50.27
2023-09-11T16:20:12.973Z,50.08
2023-09-11T16:22:43.433Z,49.67
2023-09-11T16:25:14.046Z,50.35
2023-09-11T16:27:43.365Z,49.88
2023-09-11T16:30:12.944Z,49.90
2023-09-11T16:32:42.832Z,49.74
2023-09-11T16:35:12.688Z,50.33
2023-09-11T16:37:44.903Z,50.00
2023-09-11T16:40:13.986Z,49.89
2023-09-11T16:42:44.789Z,49.74
2023-09-11T16:45:15.111Z,48.66
2023-09-11T16:47:45.232Z,48.24
2023-09-11T16:50:15.818Z,48.01
2023-09-11T16:52:46.742Z,48.28
2023-09-11T16:55:15.824Z,48.80
2023-09-11T16:57:45.160Z,48.82
2023-09-11T17:00:16.357Z,48.89
2023-09-11T17:02:45.815Z,48.50
2023-09-11T17:05:15.016Z,48.28
2023-09-11T17:07:44.146Z,48.87
2023-09-11T17:10:15.019Z,48.16
2023-09-11T17:12:44.388Z,48.65
2023-09-11T17:15:13.664Z,49.08
2023-09-11T17:17:45.291Z,48.37
2023-09-11T17:20:17.866Z,48.68
2023-09-11T17:22:46.892Z,49.33
2023-09-11T17:25:20.075Z,49.47
2023-09-11T17:27:49.353Z,49.38
2023-09-11T17:30:18.508Z,48.86
2023-09-11T17:32:47.750Z,49.48
2023-09-11T17:35:17.050Z,48.92
2023-09-11T17:37:46.135Z,49.28
2023-09-11T17:40:17.160Z,49.41
2023-09-11T17:42:46.247Z,49.85
2023-09-11T17:45:15.514Z,49.84
2023-09-11T17:47:45.973Z,49.38
2023-09-11T17:50:15.136Z,49.89
2023-09-11T17:52:44.278Z,50.07
2023-09-11T17:55:13.318Z,49.27
2023-09-11T17:57:43.801Z,49.58
2023-09-11T18:00:16.287Z,50.15
2023-09-11T18:02:46.524Z,50.24
2023-09-11T18:05:15.779Z,50.16
2023-09-11T18:07:45.458Z,49.78
2023-09-11T18:10:15.002Z,50.29
2023-09-11T18:12:45.911Z,50.12
2023-09-11T18:15:15.166Z,50.32
2023-09-11T18:17:44.605Z,49.57
2023-09-11T18:20:13.952Z,49.83
2023-09-11T18:22:43.033Z,50.08
2023-09-11T18:25:13.381Z,50.45
2023-09-11T18:27:42.501Z,50.15
2023-09-11T18:30:14.056Z,49.82
2023-09-11T18:32:43.320Z,49.98
2023-09-11T18:35:12.522Z,50.45
2023-09-11T18:37:41.585Z,50.44
2023-09-11T18:40:11.239Z,50.28
2023-09-11T18:42:40.304Z,50.73
2023-09-11T18:45:11.117Z,50.21
2023-09-11T18:47:42.210Z,50.67
2023-09-11T18:50:12.177Z,50.30
2023-09-11T18:52:44.841Z,50.39
2023-09-11T18:55:13.934Z,50.44
2023-09-11T18:57:43.040Z,50.21
2023-09-11T19:00:13.576Z,50.95
2023-09-11T19:02:44.134Z,50.87
2023-09-11T19:05:13.348Z,50.89
2023-09-11T19:07:43.545Z,51.30
2023-09-11T19:10:13.203Z,50.73
2023-09-11T19:12:42.714Z,50.97
2023-09-11T19:15:12.721Z,50.85
2023-09-11T19:17:43.307Z,51.36
2023-09-11T19:20:13.448Z,51.71
2023-09-11T19:22:42.592Z,51.53
2023-09-11T19:25:11.926Z,51.25
2023-09-11T19:27:41.231Z,51.78
2023-09-11T19:30:11.733Z,51.37
2023-09-11T19:32:40.966Z,51.57
2023-09-11T19:35:12.319Z,51.57
2023-09-11T19:37:41.431Z,51.68
2023-09-11T19:40:11.704Z,51.69
2023-09-11T19:42:40.914Z,51.99
2023-09-11T19:45:10.675Z,52.49
2023-09-11T19:47:39.810Z,52.66
2023-09-11T19:50:09.713Z,52.22
2023-09-11T19:52:40.171Z,52.82
2023-09-11T19:55:09.843Z,52.71
2023-09-11T19:57:40.500Z,52.41
2023-09-11T20:00:11.571Z,52.27
2023-09-11T20:02:41.707Z,53.19
2023-09-11T20:05:11.132Z,52.84
2023-09-11T20:07:45.079Z,51.96
2023-09-11T20:10:14.181Z,51.47
2023-09-11T20:12:45.200Z,52.00
2023-09-11T20:15:14.984Z,51.98
2023-09-11T20:17:44.307Z,51.81
2023-09-11T20:20:14.309Z,51.47
2023-09-11T20:22:44.769Z,51.27
2023-09-11T20:25:14.681Z,51.54
2023-09-11T20:27:44.200Z,51.56
2023-09-11T20:30:14.384Z,52.46
2023-09-11T20:32:43.439Z,52.45
2023-09-11T20:35:12.620Z,52.63
2023-09-11T20:37:41.666Z,52.07
2023-09-11T20:40:13.435Z,52.86
2023-09-11T20:42:42.556Z,52.29
2023-09-11T20:45:12.068Z,52.45
2023-09-11T20:47:41.250Z,52.30
2023-09-11T20:50:11.737Z,52.61
2023-09-11T20:52:40.805Z,52.48
2023-09-11T20:55:10.145Z,52.99
2023-09-11T20:57:40.570Z,52.86
2023-09-11T21:00:13.169Z,53.54
2023-09-11T21:02:42.695Z,53.58
2023-09-11T21:05:11.804Z,53.59
2023-09-11T21:07:40.875Z,53.43
2023-09-11T21:10:10.699Z,53.24
2023-09-11T21:12:51.451Z,53.83
2023-09-11T21:15:21.534Z,53.96
2023-09-11T21:17:51.755Z,53.98
2023-09-11T21:20:21.306Z,54.08
2023-09-11T21:22:50.356Z,54.03
2023-09-11T21:25:20.500Z,53.51
2023-09-11T21:27:51.056Z,54.11
2023-09-11T21:30:20.282Z,53.68
2023-09-11T21:32:50.306Z,53.94
2023-09-11T21:35:19.846Z,54.05
2023-09-11T21:37:48.914Z,53.84
2023-09-11T21:40:18.006Z,54.74
2023-09-11T21:42:47.353Z,54.52
2023-09-11T21:45:18.000Z,54.60
2023-09-11T21:47:47.067Z,54.73
2023-09-11T21:50:16.252Z,54.67
2023-09-11T21:52:45.323Z,54.17
2023-09-11T21:55:14.510Z,54.38
2023-09-11T21:57:43.548Z,54.39
2023-09-11T22:00:14.549Z,54.67
2023-09-11T22:02:45.056Z,54.27
2023-09-11T22:05:14.181Z,54.82
2023-09-11T22:07:43.525Z,54.50
2023-09-11T22:10:12.640Z,54.55
2023-09-11T22:12:41.727Z,54.49
2023-09-11T22:15:11.632Z,54.98
2023-09-11T22:17:40.736Z,54.67
2023-09-11T22:20:11.825Z,54.59
2023-09-11T22:22:40.956Z,54.81
2023-09-11T22:25:10.848Z,54.87
2023-09-11T22:27:39.871Z,54.42
2023-09-11T22:30:10.094Z,54.84
2023-09-11T22:32:53.272Z,54.56
2023-09-11T22:35:27.668Z,54.56
2023-09-11T22:37:59.626Z,54.61
2023-09-11T22:40:28.672Z,54.71
2023-09-11T22:42:58.710Z,54.46
2023-09-11T22:45:27.841Z,54.56
2023-09-11T22:47:57.086Z,54.88
2023-09-11T22:50:27.822Z,54.69
2023-09-11T22:52:58.513Z,54.86
2023-09-11T22:55:27.949Z,54.66
2023-09-11T22:57:57.004Z,55.08
2023-09-11T23:00:26.146Z,55.11
2023-09-11T23:02:55.389Z,55.05
2023-09-11T23:05:24.634Z,55.11
2023-09-11T23:07:55.032Z,54.85
2023-09-11T23:10:24.136Z,55.10
2023-09-11T23:12:53.158Z,54.75
2023-09-11T23:15:22.859Z,55.30
2023-09-11T23:17:52.000Z,54.99
2023-09-11T23:20:21.104Z,55.01
2023-09-11T23:22:50.199Z,54.67
2023-09-11T23:25:20.997Z,55.00
2023-09-11T23:27:51.793Z,54.82
2023-09-11T23:30:20.919Z,55.71
2023-09-11T23:32:49.980Z,54.96
2023-09-11T23:35:19.082Z,54.99
2023-09-11T23:37:48.193Z,54.31
2023-09-11T23:40:17.349Z,55.40
2023-09-11T23:42:47.794Z,55.03
2023-09-11T23:45:16.967Z,54.94
2023-09-11T23:47:46.076Z,55.04
2023-09-11T23:50:15.210Z,55.08
2023-09-11T23:52:44.255Z,54.87
2023-09-11T23:55:13.291Z,55.03
2023-09-11T23:57:42.440Z,54.60
